Time;durP1;ratioP1;P1;durP2;ratioP2;P2;SDS_P1;SDS_P2;PMS_P1;PMS_P2;Temp;Humidity;BMP_temperature;BMP_pressure;BME280_temperature;BME280_humidity;BME280_pressure;Samples;Min_cycle;Max_cycle;Signal;HPM_P1;HPM_P2
2020/12/23 00:02:20;;;;;;;10.07;5.50;;;;;;;8.64;100.00;100587.72;5141212;28;20022;-79
2020/12/23 00:04:50;;;;;;;13.85;6.13;;;;;;;8.92;100.00;100566.94;5140680;28;20058;-79
2020/12/23 00:07:20;;;;;;;10.30;5.47;;;;;;;8.98;100.00;100561.53;5140196;28;20027;-79
2020/12/23 00:09:51;;;;;;;14.85;6.55;;;;;;;8.65;100.00;100552.94;5140094;28;20026;-79
2020/12/23 00:12:21;;;;;;;12.35;6.68;;;;;;;8.52;100.00;100553.34;5141284;28;20033;-79
2020/12/23 00:14:51;;;;;;;17.08;7.30;;;;;;;8.38;100.00;100543.28;5140393;28;20030;-79
2020/12/23 00:17:21;;;;;;;10.77;6.57;;;;;;;8.32;100.00;100556.47;5141275;28;20023;-79
2020/12/23 00:19:52;;;;;;;14.50;7.10;;;;;;;8.35;100.00;100561.59;5140340;28;20037;-78
2020/12/23 00:22:22;;;;;;;15.07;7.43;;;;;;;8.31;100.00;100562.56;5140769;28;20030;-79
2020/12/23 00:24:53;;;;;;;13.38;6.70;;;;;;;8.38;100.00;100560.66;5141058;28;20058;-79
2020/12/23 00:27:23;;;;;;;15.75;7.57;;;;;;;8.35;100.00;100565.97;5123811;28;20388;-79
2020/12/23 00:29:53;;;;;;;13.43;6.30;;;;;;;8.41;100.00;100553.59;5139588;28;20109;-79
2020/12/23 00:32:28;;;;;;;11.23;6.07;;;;;;;8.38;100.00;100553.69;5140487;28;20026;-79
2020/12/23 00:34:58;;;;;;;12.40;6.22;;;;;;;8.33;100.00;100568.59;5140484;28;20023;-79
2020/12/23 00:37:29;;;;;;;9.07;6.13;;;;;;;8.39;100.00;100562.38;5143581;28;20089;-79
2020/12/23 00:39:59;;;;;;;12.93;5.47;;;;;;;8.69;100.00;100557.16;5160511;28;20031;-79
2020/12/23 00:42:29;;;;;;;12.88;5.63;;;;;;;8.48;100.00;100555.16;5159443;28;20073;-79
2020/12/23 00:45:00;;;;;;;11.77;5.28;;;;;;;8.46;100.00;100559.56;5139221;28;20027;-79
2020/12/23 00:47:30;;;;;;;13.32;5.55;;;;;;;8.39;100.00;100558.00;5140748;28;21184;-79
2020/12/23 00:50:01;;;;;;;15.55;5.82;;;;;;;8.33;100.00;100557.31;5140390;28;20023;-79
2020/12/23 00:52:31;;;;;;;13.52;5.70;;;;;;;8.33;100.00;100563.38;5143733;28;20034;-79
2020/12/23 00:55:01;;;;;;;14.27;5.70;;;;;;;8.34;100.00;100554.66;5144241;28;20073;-79
2020/12/23 00:57:32;;;;;;;19.70;6.80;;;;;;;8.40;100.00;100559.69;5137046;28;20110;-79
2020/12/23 01:00:04;;;;;;;15.25;5.97;;;;;;;8.46;100.00;100548.28;5142654;28;20031;-79
2020/12/23 01:02:34;;;;;;;13.40;5.50;;;;;;;8.31;100.00;100552.16;5143774;28;20023;-79
2020/12/23 01:05:05;;;;;;;15.55;5.78;;;;;;;8.30;100.00;100563.47;5144044;28;20027;-79
2020/12/23 01:07:35;;;;;;;10.65;5.43;;;;;;;8.31;100.00;100557.38;5142876;28;20034;-79
2020/12/23 01:10:05;;;;;;;9.27;5.30;;;;;;;8.35;100.00;100566.78;5138706;28;20058;-79
2020/12/23 01:12:36;;;;;;;8.70;6.00;;;;;;;8.38;100.00;100571.06;5164152;28;20061;-79
2020/12/23 01:15:06;;;;;;;10.30;5.93;;;;;;;8.29;100.00;100572.19;5163842;28;20022;-79
2020/12/23 01:17:36;;;;;;;14.05;5.88;;;;;;;8.31;100.00;100567.78;5146648;28;20030;-78
2020/12/23 01:20:07;;;;;;;14.15;6.50;;;;;;;8.33;100.00;100560.78;5163624;28;20037;-79
2020/12/23 01:22:37;;;;;;;15.05;6.22;;;;;;;8.39;100.00;100581.44;5163243;28;20030;-79
2020/12/23 01:25:07;;;;;;;13.18;6.68;;;;;;;8.45;100.00;100586.50;5161614;28;20101;-79
2020/12/23 01:27:37;;;;;;;15.13;8.02;;;;;;;8.45;100.00;100586.50;5142833;28;20701;-79
2020/12/23 01:30:08;;;;;;;16.45;7.65;;;;;;;8.50;100.00;100589.81;5143777;28;20037;-79
2020/12/23 01:32:38;;;;;;;15.07;7.38;;;;;;;8.62;100.00;100580.81;5143533;28;20489;-79
2020/12/23 01:35:10;;;;;;;14.55;7.30;;;;;;;8.78;100.00;100587.31;5143595;28;20034;-79
2020/12/23 01:37:40;;;;;;;15.43;7.32;;;;;;;8.65;100.00;100589.41;5148142;28;20023;-78
2020/12/23 01:40:10;;;;;;;13.55;7.28;;;;;;;8.87;100.00;100585.28;5163595;28;20063;-79
2020/12/23 01:42:40;;;;;;;11.73;6.80;;;;;;;8.88;100.00;100581.78;5163440;28;20370;-78
2020/12/23 01:45:11;;;;;;;15.07;6.95;;;;;;;8.85;100.00;100589.69;5163528;28;20026;-79
2020/12/23 01:47:44;;;;;;;14.18;7.10;;;;;;;8.72;100.00;100579.69;5163888;28;20389;-79
2020/12/23 01:50:15;;;;;;;14.32;7.78;;;;;;;8.76;100.00;100573.47;5163419;28;20101;-79
2020/12/23 01:52:45;;;;;;;12.10;7.18;;;;;;;8.86;100.00;100560.13;5145954;28;20127;-78
2020/12/23 01:55:16;;;;;;;17.52;7.78;;;;;;;8.76;100.00;100550.03;5137764;28;20465;-78
2020/12/23 01:57:46;;;;;;;12.18;7.32;;;;;;;8.77;100.00;100549.13;5142269;28;20047;-79
2020/12/23 02:00:16;;;;;;;16.13;6.85;;;;;;;8.66;100.00;100546.84;5141776;28;20026;-79
2020/12/23 02:02:50;;;;;;;15.18;6.88;;;;;;;8.65;100.00;100547.72;5142323;28;20034;-79
2020/12/23 02:05:21;;;;;;;12.57;6.85;;;;;;;8.64;100.00;100552.97;5142989;28;20466;-79
2020/12/23 02:07:51;;;;;;;13.52;7.18;;;;;;;8.47;100.00;100549.97;5142450;28;20065;-78
2020/12/23 02:10:21;;;;;;;13.93;7.70;;;;;;;8.46;100.00;100549.13;5141766;28;20019;-79
2020/12/23 02:12:55;;;;;;;13.40;7.38;;;;;;;8.66;100.00;100557.25;5143141;28;20081;-79
2020/12/23 02:15:25;;;;;;;11.60;6.38;;;;;;;8.68;100.00;100555.44;5142697;28;20035;-78
2020/12/23 02:17:55;;;;;;;14.30;6.50;;;;;;;8.64;100.00;100551.22;5141896;28;20038;-78
2020/12/23 02:20:26;;;;;;;16.83;6.35;;;;;;;8.64;100.00;100550.38;5142482;28;20054;-79
2020/12/23 02:22:56;;;;;;;11.32;5.80;;;;;;;8.72;100.00;100545.81;5142671;28;20532;-79
2020/12/23 02:25:26;;;;;;;10.25;5.70;;;;;;;8.91;100.00;100542.59;5141702;28;20066;-79
2020/12/23 02:27:57;;;;;;;12.48;5.70;;;;;;;8.92;100.00;100539.09;5141691;28;20026;-79
2020/12/23 02:30:27;;;;;;;12.38;6.45;;;;;;;8.82;100.00;100540.28;5141625;28;20030;-79
2020/12/23 02:32:58;;;;;;;17.17;7.30;;;;;;;8.75;100.00;100545.72;5124773;28;20026;-79
2020/12/23 02:35:28;;;;;;;16.77;6.97;;;;;;;8.53;100.00;100550.66;5142548;28;20031;-79
2020/12/23 02:37:59;;;;;;;19.85;7.88;;;;;;;8.49;100.00;100548.19;5149395;28;20400;-79
2020/12/23 02:40:29;;;;;;;15.13;8.18;;;;;;;8.68;100.00;100560.66;5162201;28;20030;-79
2020/12/23 02:42:59;;;;;;;16.38;8.40;;;;;;;8.54;100.00;100547.16;5162061;28;20045;-79
2020/12/23 02:45:29;;;;;;;15.65;7.70;;;;;;;8.57;100.00;100552.28;5151771;28;20014;-79
2020/12/23 02:48:00;;;;;;;18.83;8.18;;;;;;;8.71;100.00;100550.16;5142167;28;20026;-79
2020/12/23 02:50:30;;;;;;;17.95;8.88;;;;;;;8.77;100.00;100547.38;5142412;28;20026;-79
2020/12/23 02:53:00;;;;;;;12.95;7.70;;;;;;;8.88;100.00;100537.50;5142035;28;20042;-79
2020/12/23 02:55:31;;;;;;;18.92;8.55;;;;;;;8.82;100.00;100542.03;5142100;28;20743;-79
2020/12/23 02:58:01;;;;;;;20.08;8.18;;;;;;;8.71;100.00;100546.72;5141158;28;20031;-79
2020/12/23 03:00:31;;;;;;;17.35;8.68;;;;;;;8.76;100.00;100542.22;5141444;28;20101;-79
2020/12/23 03:03:01;;;;;;;15.77;8.60;;;;;;;8.89;100.00;100544.41;5141578;28;20038;-79
2020/12/23 03:05:32;;;;;;;19.85;9.77;;;;;;;8.88;100.00;100537.50;5141955;28;20034;-79
2020/12/23 03:08:02;;;;;;;16.08;8.20;;;;;;;8.69;100.00;100543.31;5142102;28;20082;-79
2020/12/23 03:10:32;;;;;;;18.63;9.38;;;;;;;8.53;100.00;100540.25;5140863;28;20023;-79
2020/12/23 03:13:02;;;;;;;16.90;9.00;;;;;;;8.45;100.00;100546.56;5141035;28;20394;-78
2020/12/23 03:15:33;;;;;;;16.60;8.63;;;;;;;8.44;100.00;100550.94;5140650;28;20036;-79
2020/12/23 03:18:03;;;;;;;19.95;10.10;;;;;;;8.41;100.00;100545.78;5140844;28;20126;-78
2020/12/23 03:20:33;;;;;;;23.05;10.07;;;;;;;8.35;100.00;100540.75;5140541;28;20034;-78
2020/12/23 03:23:03;;;;;;;27.10;10.55;;;;;;;8.34;100.00;100546.88;5123530;28;20476;-79
2020/12/23 03:25:33;;;;;;;16.88;9.63;;;;;;;8.39;100.00;100547.59;5141899;28;20441;-79
2020/12/23 03:28:04;;;;;;;24.30;10.93;;;;;;;8.30;100.00;100542.63;5140791;28;20029;-79
2020/12/23 03:30:34;;;;;;;22.05;10.98;;;;;;;8.35;100.00;100540.75;5141609;28;20050;-78
2020/12/23 03:33:04;;;;;;;23.45;10.85;;;;;;;8.34;100.00;100533.84;5144519;28;20076;-79
2020/12/23 03:35:35;;;;;;;22.25;10.35;;;;;;;8.39;100.00;100531.97;5147201;28;20061;-79
2020/12/23 03:38:05;;;;;;;23.88;10.38;;;;;;;8.55;100.00;100535.00;5155162;28;20463;-79
2020/12/23 03:40:36;;;;;;;19.90;9.35;;;;;;;8.62;100.00;100534.78;5167033;28;20032;-79
2020/12/23 03:43:07;;;;;;;18.67;9.20;;;;;;;8.61;100.00;100534.81;5167113;28;20041;-79
2020/12/23 03:45:37;;;;;;;20.42;9.13;;;;;;;8.74;100.00;100525.78;5149308;28;20031;-79
2020/12/23 03:48:07;;;;;;;19.73;8.95;;;;;;;8.61;100.00;100527.88;5147297;28;20031;-79
2020/12/23 03:50:38;;;;;;;17.38;8.55;;;;;;;8.69;100.00;100530.28;5147591;28;20109;-79
2020/12/23 03:53:09;;;;;;;16.65;8.75;;;;;;;8.53;100.00;100535.03;5147314;28;20054;-79
2020/12/23 03:55:40;;;;;;;18.85;9.70;;;;;;;8.57;100.00;100521.03;5147343;28;20038;-79
2020/12/23 03:58:10;;;;;;;19.02;9.30;;;;;;;8.44;100.00;100518.81;5146963;28;20030;-79
2020/12/23 04:00:40;;;;;;;23.65;9.98;;;;;;;8.36;100.00;100518.19;5147860;28;20026;-79
2020/12/23 04:03:11;;;;;;;16.90;9.10;;;;;;;8.36;100.00;100526.00;5146755;28;20027;-79
2020/12/23 04:05:41;;;;;;;18.60;9.65;;;;;;;8.40;100.00;100525.84;5147072;28;20098;-78
2020/12/23 04:08:11;;;;;;;17.77;9.98;;;;;;;8.54;100.00;100517.69;5147424;28;20042;-79
2020/12/23 04:10:41;;;;;;;22.85;9.95;;;;;;;8.53;100.00;100515.97;5147059;28;20054;-79
2020/12/23 04:13:12;;;;;;;19.65;9.65;;;;;;;8.51;100.00;100512.53;5146798;28;20034;-79
2020/12/23 04:15:42;;;;;;;21.08;10.07;;;;;;;8.47;100.00;100506.56;5147039;28;20066;-79
2020/12/23 04:18:12;;;;;;;18.85;9.52;;;;;;;8.53;100.00;100510.75;5146935;28;20113;-79
2020/12/23 04:20:42;;;;;;;15.75;8.98;;;;;;;8.58;100.00;100517.53;5146898;28;20247;-79
2020/12/23 04:23:14;;;;;;;20.52;9.65;;;;;;;8.53;100.00;100516.81;5142259;28;20031;-79
2020/12/23 04:25:44;;;;;;;17.15;9.38;;;;;;;8.65;100.00;100520.81;5143265;28;20033;-79
2020/12/23 04:28:14;;;;;;;17.95;9.15;;;;;;;8.74;100.00;100517.97;5143568;28;20030;-79
2020/12/23 04:30:47;;;;;;;17.75;9.38;;;;;;;8.83;100.00;100521.16;5144703;28;20517;-78
2020/12/23 04:33:17;;;;;;;17.08;9.45;;;;;;;8.75;100.00;100517.91;5144669;28;20417;-79
2020/12/23 04:35:47;;;;;;;19.25;11.00;;;;;;;8.68;100.00;100505.09;5143484;28;20085;-79
2020/12/23 04:38:18;;;;;;;19.60;10.18;;;;;;;8.64;100.00;100511.28;5154063;28;20490;-79
2020/12/23 04:40:48;;;;;;;18.02;10.65;;;;;;;8.66;100.00;100512.97;5164750;28;20030;-78
2020/12/23 04:43:19;;;;;;;19.15;10.70;;;;;;;8.78;100.00;100512.63;5146886;28;20066;-79
2020/12/23 04:45:50;;;;;;;19.45;10.63;;;;;;;8.62;100.00;100503.53;5144556;28;20027;-78
2020/12/23 04:48:24;;;;;;;22.02;11.48;;;;;;;8.66;100.00;100504.28;5144993;28;20593;-79
2020/12/23 04:50:55;;;;;;;22.85;11.20;;;;;;;8.70;100.00;100506.75;5144766;28;20054;-79
2020/12/23 04:53:26;;;;;;;27.45;11.95;;;;;;;8.72;100.00;100499.75;5144171;28;20129;-79
2020/12/23 04:55:56;;;;;;;22.13;11.55;;;;;;;8.73;100.00;100504.06;5144787;28;20034;-78
2020/12/23 04:58:27;;;;;;;22.30;11.63;;;;;;;8.64;100.00;100509.56;5142763;28;20105;-79
2020/12/23 05:00:57;;;;;;;23.67;11.48;;;;;;;8.57;100.00;100494.97;5144257;28;20086;-79
2020/12/23 05:03:28;;;;;;;22.30;11.88;;;;;;;8.50;100.00;100503.88;5143056;28;20034;-78
2020/12/23 05:05:58;;;;;;;30.13;12.93;;;;;;;8.50;100.00;100514.28;5144048;28;20112;-78
2020/12/23 05:08:28;;;;;;;24.10;12.68;;;;;;;8.52;100.00;100516.88;5144578;28;20062;-79
2020/12/23 05:11:08;;;;;;;21.30;12.07;;;;;;;8.67;100.00;100512.06;5144462;28;20489;-79
2020/12/23 05:13:40;;;;;;;29.27;13.73;;;;;;;8.65;100.00;100521.69;5143875;28;20038;-79
2020/12/23 05:16:22;;;;;;;27.80;14.27;;;;;;;8.72;100.00;100511.94;5144745;28;20477;-78
2020/12/23 05:18:57;;;;;;;29.65;14.10;;;;;;;8.68;100.00;100507.69;5144196;28;20043;-79
2020/12/23 05:21:28;;;;;;;30.00;15.17;;;;;;;8.76;100.00;100503.13;5144732;28;20050;-78
2020/12/23 05:23:58;;;;;;;32.47;16.00;;;;;;;8.68;100.00;100516.38;5143804;28;20764;-79
2020/12/23 05:26:35;;;;;;;39.13;17.00;;;;;;;8.66;100.00;100514.69;5145990;28;20084;-79
2020/12/23 05:29:05;;;;;;;44.35;17.67;;;;;;;8.61;100.00;100506.16;5144681;28;20038;-79
2020/12/23 05:31:36;;;;;;;39.92;17.77;;;;;;;8.54;100.00;100513.31;5144902;28;20034;-79
2020/12/23 05:34:06;;;;;;;38.85;16.80;;;;;;;8.56;100.00;100506.28;5145237;28;20045;-79
2020/12/23 05:36:40;;;;;;;41.67;17.60;;;;;;;8.56;100.00;100514.13;5144787;28;20109;-79
2020/12/23 05:39:10;;;;;;;41.85;17.45;;;;;;;8.57;100.00;100504.56;5161869;28;20037;-79
2020/12/23 05:41:41;;;;;;;40.33;17.27;;;;;;;8.57;100.00;100499.34;5166051;28;20030;-79
2020/12/23 05:44:18;;;;;;;41.35;17.30;;;;;;;8.58;100.00;100499.28;5165373;28;20109;-79
2020/12/23 05:46:50;;;;;;;40.17;17.00;;;;;;;8.58;100.00;100496.69;5147629;28;20023;-79
2020/12/23 05:49:23;;;;;;;43.22;17.73;;;;;;;8.42;100.00;100494.56;5165865;28;20030;-79
2020/12/23 05:51:53;;;;;;;37.40;16.25;;;;;;;8.49;100.00;100491.75;5159922;28;20116;-79
2020/12/23 05:54:23;;;;;;;37.75;16.42;;;;;;;8.51;100.00;100487.34;5145503;28;20043;-79
2020/12/23 05:56:54;;;;;;;43.30;17.33;;;;;;;8.54;100.00;100479.44;5144229;28;20031;-79
2020/12/23 05:59:24;;;;;;;40.72;16.30;;;;;;;8.58;100.00;100481.06;5142854;28;20034;-79
2020/12/23 06:01:56;;;;;;;41.38;16.67;;;;;;;8.44;100.00;100483.22;5145004;28;20029;-79
2020/12/23 06:04:27;;;;;;;42.25;17.35;;;;;;;8.47;100.00;100480.53;5144175;28;20035;-79
2020/12/23 06:07:05;;;;;;;40.63;16.92;;;;;;;8.45;100.00;100474.53;5144811;28;20023;-78
2020/12/23 06:09:47;;;;;;;42.10;17.05;;;;;;;8.51;100.00;100478.66;5145608;28;20493;-79
2020/12/23 06:12:20;;;;;;;40.38;16.88;;;;;;;8.58;100.00;100478.44;5145427;28;20038;-79
2020/12/23 06:14:56;;;;;;;38.97;16.27;;;;;;;8.52;100.00;100490.81;5145610;28;20022;-79
2020/12/23 06:17:26;;;;;;;;;;;;;;;8.50;100.00;100483.03;5145730;28;20029;-79
2020/12/23 06:19:58;;;;;;;40.45;16.33;;;;;;;8.51;100.00;100489.97;5145543;28;20065;-78
2020/12/23 06:22:28;;;;;;;41.90;15.90;;;;;;;8.50;100.00;100498.66;5144546;28;20541;-79
2020/12/23 06:25:00;;;;;;;38.63;17.05;;;;;;;8.50;100.00;100488.25;5145554;28;20038;-79
2020/12/23 06:27:32;;;;;;;42.00;16.55;;;;;;;8.47;100.00;100488.34;5127004;28;20097;-78
2020/12/23 06:30:04;;;;;;;40.13;16.92;;;;;;;8.43;100.00;100475.44;5143523;28;20019;-79
2020/12/23 06:32:36;;;;;;;38.10;16.88;;;;;;;8.49;100.00;100476.13;5144462;28;20030;-78
2020/12/23 06:35:06;;;;;;;41.50;16.85;;;;;;;8.44;100.00;100472.81;5144607;28;20097;-79
2020/12/23 06:37:37;;;;;;;35.53;16.42;;;;;;;8.52;100.00;100470.81;5149053;28;20026;-79
2020/12/23 06:40:10;;;;;;;34.97;16.42;;;;;;;8.52;100.00;100472.59;5164603;28;20037;-79
2020/12/23 06:42:47;;;;;;;41.08;16.77;;;;;;;8.42;100.00;100464.16;5164943;28;20575;-79
2020/12/23 06:45:20;;;;;;;39.05;16.20;;;;;;;8.43;100.00;100468.50;5164303;28;20209;-79
2020/12/23 06:47:50;;;;;;;42.38;16.98;;;;;;;8.36;100.00;100473.94;5163839;28;20027;-79
2020/12/23 06:50:20;;;;;;;38.88;16.75;;;;;;;8.52;100.00;100481.25;5162441;28;20021;-79
2020/12/23 06:52:51;;;;;;;35.73;15.53;;;;;;;8.39;100.00;100477.28;5164787;28;20592;-79
2020/12/23 06:55:45;;;;;;;39.97;16.38;;;;;;;8.46;100.00;100475.34;5164600;28;20277;-79
2020/12/23 06:58:40;;;;;;;44.78;17.02;;;;;;;8.56;100.00;100472.44;5140236;28;20030;-79
2020/12/23 07:01:15;;;;;;;33.58;16.58;;;;;;;8.57;100.00;100465.50;5140194;28;20027;-79
2020/12/23 07:03:47;;;;;;;36.90;16.67;;;;;;;8.54;100.00;100474.25;5143003;28;20089;-79
2020/12/23 07:06:31;;;;;;;39.72;17.58;;;;;;;8.62;100.00;100474.88;5144875;28;20137;-78
2020/12/23 07:09:05;;;;;;;32.13;15.75;;;;;;;8.62;100.00;100474.03;5144859;28;20109;-79
2020/12/23 07:11:37;;;;;;;37.35;16.80;;;;;;;8.59;100.00;100477.56;5144847;28;20098;-79
2020/12/23 07:14:13;;;;;;;37.35;16.08;;;;;;;8.69;100.00;100468.59;5144511;28;20023;-79
2020/12/23 07:16:44;;;;;;;35.40;16.45;;;;;;;8.61;100.00;100475.78;5144836;28;20038;-80
2020/12/23 07:19:16;;;;;;;33.35;16.83;;;;;;;8.56;100.00;100475.03;5144478;28;20037;-79
2020/12/23 07:21:48;;;;;;;37.10;16.17;;;;;;;8.61;100.00;100481.00;5144711;28;20110;-79
2020/12/23 07:24:20;;;;;;;31.08;15.45;;;;;;;8.56;100.00;100482.84;5143285;28;20042;-79
2020/12/23 07:26:52;;;;;;;31.45;15.25;;;;;;;8.61;100.00;100478.41;5144162;28;20085;-79
2020/12/23 07:29:28;;;;;;;38.75;16.88;;;;;;;8.60;100.00;100487.09;5142548;28;20629;-79
2020/12/23 07:31:58;;;;;;;35.13;16.23;;;;;;;8.59;100.00;100485.38;5143739;28;20093;-79
2020/12/23 07:34:30;;;;;;;38.63;16.52;;;;;;;8.66;100.00;100494.72;5143505;28;20031;-79
2020/12/23 07:37:03;;;;;;;35.20;16.75;;;;;;;8.68;100.00;100494.66;5143840;28;20538;-79
2020/12/23 07:39:33;;;;;;;42.92;17.98;;;;;;;8.71;100.00;100503.25;5163589;28;20030;-78
2020/12/23 07:42:04;;;;;;;39.13;17.42;;;;;;;8.70;100.00;100495.50;5164978;28;20041;-79
2020/12/23 07:44:35;;;;;;;43.88;18.52;;;;;;;8.56;100.00;100485.47;5164184;28;20037;-79
2020/12/23 07:47:05;;;;;;;35.92;17.20;;;;;;;8.63;100.00;100478.31;5164337;28;20030;-79
2020/12/23 07:49:35;;;;;;;44.05;18.52;;;;;;;8.67;100.00;100495.56;5163017;28;20018;-78
2020/12/23 07:52:06;;;;;;;41.40;19.00;;;;;;;8.62;100.00;100479.22;5164305;28;20523;-79
2020/12/23 07:54:36;;;;;;;42.85;18.50;;;;;;;8.63;100.00;100487.00;5163149;28;20034;-78
2020/12/23 07:57:06;;;;;;;45.50;19.33;;;;;;;8.51;100.00;100476.94;5160127;28;20026;-79
2020/12/23 07:59:37;;;;;;;48.13;19.77;;;;;;;8.53;100.00;100482.94;5154942;28;20658;-80
2020/12/23 08:02:09;;;;;;;46.63;18.08;;;;;;;8.58;100.00;100490.63;5144114;28;20473;-78
2020/12/23 08:04:39;;;;;;;40.17;17.42;;;;;;;8.63;100.00;100479.19;5144618;28;20510;-78
2020/12/23 08:07:10;;;;;;;43.70;17.88;;;;;;;8.56;100.00;100474.22;5145578;28;20026;-79
2020/12/23 08:09:40;;;;;;;36.10;16.83;;;;;;;8.57;100.00;100479.34;5128817;28;20489;-79
2020/12/23 08:12:11;;;;;;;43.00;17.33;;;;;;;8.50;100.00;100471.75;5157503;28;20778;-79
2020/12/23 08:14:41;;;;;;;38.17;16.48;;;;;;;8.58;100.00;100477.63;5160878;28;20073;-79
2020/12/23 08:17:24;;;;;;;37.95;16.92;;;;;;;8.60;100.00;100474.09;5159823;28;20029;-78
2020/12/23 08:20:02;;;;;;;43.60;18.30;;;;;;;8.59;100.00;100480.16;5159247;28;20042;-79
2020/12/23 08:22:34;;;;;;;45.92;18.27;;;;;;;8.64;100.00;100464.41;5159733;28;20033;-79
2020/12/23 08:25:05;;;;;;;37.25;19.38;;;;;;;8.65;100.00;100466.97;5165210;28;20562;-78
2020/12/23 08:27:36;;;;;;;44.90;20.20;;;;;;;8.71;100.00;100469.38;5162301;28;20022;-79
2020/12/23 08:30:11;;;;;;;42.22;19.98;;;;;;;8.71;100.00;100466.78;5161434;28;20027;-79
2020/12/23 08:33:02;;;;;;;46.88;19.63;;;;;;;8.66;100.00;100465.22;5164356;28;20030;-79
2020/12/23 08:35:40;;;;;;;39.40;18.80;;;;;;;8.70;100.00;100464.25;5154306;28;20095;-79
2020/12/23 08:38:18;;;;;;;40.40;19.63;;;;;;;8.72;100.00;100450.25;5145833;28;20094;-79
2020/12/23 08:40:53;;;;;;;46.88;21.02;;;;;;;8.68;100.00;100447.78;5157862;28;20031;-79
2020/12/23 08:43:28;;;;;;;52.53;22.17;;;;;;;8.65;100.00;100435.72;5146441;28;20505;-79
2020/12/23 08:46:00;;;;;;;51.20;22.27;;;;;;;8.68;100.00;100438.22;5145418;28;20050;-79
2020/12/23 08:48:31;;;;;;;59.42;23.23;;;;;;;8.66;100.00;100440.03;5148310;28;20081;-78
2020/12/23 08:51:03;;;;;;;57.65;24.42;;;;;;;8.64;100.00;100431.41;5149108;28;20066;-79
2020/12/23 08:53:38;;;;;;;58.85;25.08;;;;;;;8.59;100.00;100425.47;5166452;28;20092;-79
2020/12/23 08:56:31;;;;;;;59.53;25.48;;;;;;;8.69;100.00;100423.47;5163345;28;20081;-78
2020/12/23 08:59:06;;;;;;;58.45;25.10;;;;;;;8.65;100.00;100430.50;5145545;28;20033;-78
2020/12/23 09:01:36;;;;;;;57.33;26.50;;;;;;;8.71;100.00;100435.53;5157437;28;20030;-78
2020/12/23 09:04:09;;;;;;;59.70;27.33;;;;;;;8.77;100.00;100430.16;5157697;28;20286;-78
2020/12/23 09:06:43;;;;;;;61.45;26.40;;;;;;;8.77;100.00;100437.09;5156476;28;20022;-78
2020/12/23 09:09:20;;;;;;;57.85;25.90;;;;;;;8.76;100.00;100443.22;5159539;28;20485;-78
2020/12/23 09:11:52;;;;;;;58.90;26.98;;;;;;;8.79;100.00;100448.31;5154821;28;20034;-78
2020/12/23 09:14:30;;;;;;;67.63;27.88;;;;;;;8.71;100.00;100440.72;5162441;28;20633;-78
2020/12/23 09:17:08;;;;;;;61.92;28.05;;;;;;;8.75;100.00;100431.91;5162855;28;20110;-78
2020/12/23 09:19:52;;;;;;;58.65;27.65;;;;;;;8.88;100.00;100432.41;5139736;28;20047;-78
2020/12/23 09:22:37;;;;;;;60.38;27.92;;;;;;;8.79;100.00;100433.56;5137786;28;20022;-78
2020/12/23 09:25:26;;;;;;;59.55;27.65;;;;;;;8.83;100.00;100427.34;5135291;28;20109;-78
2020/12/23 09:28:11;;;;;;;70.00;29.75;;;;;;;8.85;100.00;100427.28;5135603;28;20053;-78
2020/12/23 09:31:10;;;;;;;71.90;29.63;;;;;;;8.80;100.00;100427.44;5137380;28;20035;-78
2020/12/23 09:33:41;;;;;;;68.10;29.50;;;;;;;8.89;100.00;100429.75;5121501;28;20043;-78
2020/12/23 09:36:11;;;;;;;73.55;30.52;;;;;;;8.84;100.00;100421.22;5134925;28;20053;-78
2020/12/23 09:38:43;;;;;;;74.72;31.20;;;;;;;8.87;100.00;100421.13;5154921;28;20027;-78
2020/12/23 09:41:16;;;;;;;76.00;31.92;;;;;;;8.88;100.00;100422.00;5161349;28;20050;-78
2020/12/23 09:43:46;;;;;;;79.63;32.25;;;;;;;8.87;100.00;100418.53;5160889;28;20397;-78
2020/12/23 09:46:16;;;;;;;86.30;33.45;;;;;;;8.85;100.00;100416.84;5162009;28;20041;-78
2020/12/23 09:48:47;;;;;;;86.90;33.38;;;;;;;8.90;100.00;100410.59;5161544;28;20057;-79
2020/12/23 09:51:17;;;;;;;81.88;33.50;;;;;;;8.91;100.00;100411.47;5162099;28;20066;-79
2020/12/23 09:53:47;;;;;;;83.97;33.25;;;;;;;8.93;100.00;100405.28;5160934;28;20038;-78
2020/12/23 09:56:17;;;;;;;80.68;34.25;;;;;;;8.89;100.00;100397.63;5151791;28;20039;-79
2020/12/23 09:58:48;;;;;;;77.53;32.45;;;;;;;8.99;100.00;100388.59;5146087;28;20022;-79
2020/12/23 10:01:18;;;;;;;82.18;33.00;;;;;;;8.95;100.00;100387.88;5146931;28;20126;-79
2020/12/23 10:03:48;;;;;;;73.00;31.23;;;;;;;8.98;100.00;100384.31;5141536;28;20066;-78
2020/12/23 10:06:18;;;;;;;75.10;32.10;;;;;;;8.85;100.00;100381.25;5128270;28;20050;-78
2020/12/23 10:08:49;;;;;;;85.63;33.13;;;;;;;8.94;100.00;100373.16;5122138;28;20031;-78
2020/12/23 10:11:19;;;;;;;77.60;31.75;;;;;;;8.91;100.00;100375.00;5122112;28;20046;-78
2020/12/23 10:13:49;;;;;;;74.13;31.20;;;;;;;8.96;100.00;100366.13;5121021;28;20035;-79
2020/12/23 10:16:19;;;;;;;68.45;29.33;;;;;;;9.00;100.00;100361.63;5122354;28;20031;-78
2020/12/23 10:18:50;;;;;;;72.50;29.00;;;;;;;8.98;100.00;100366.06;5121421;28;20027;-78
2020/12/23 10:21:20;;;;;;;66.80;28.40;;;;;;;8.96;100.00;100362.66;5106789;28;20054;-78
2020/12/23 10:23:51;;;;;;;67.97;27.67;;;;;;;9.00;100.00;100353.81;5139714;28;20022;-78
2020/12/23 10:26:21;;;;;;;68.38;27.67;;;;;;;8.96;100.00;100347.88;5140525;28;20043;-79
2020/12/23 10:28:51;;;;;;;67.50;27.25;;;;;;;9.10;100.00;100337.00;5138983;28;20632;-78
2020/12/23 10:31:21;;;;;;;71.93;27.73;;;;;;;9.01;100.00;100325.13;5139904;28;20069;-78
2020/12/23 10:33:52;;;;;;;65.63;27.25;;;;;;;9.14;100.00;100311.59;5134491;28;20038;-78
2020/12/23 10:36:22;;;;;;;63.55;26.02;;;;;;;9.17;100.00;100306.28;5136310;28;20505;-78
2020/12/23 10:38:52;;;;;;;66.55;26.27;;;;;;;9.26;100.00;100299.91;5128151;28;20034;-78
2020/12/23 10:41:23;;;;;;;61.77;25.60;;;;;;;9.21;100.00;100299.22;5135719;28;20076;-78
2020/12/23 10:43:53;;;;;;;65.78;26.10;;;;;;;9.27;100.00;100296.38;5143293;28;20323;-78
2020/12/23 10:46:23;;;;;;;57.47;23.80;;;;;;;9.27;100.00;100286.81;5116138;28;20122;-79
2020/12/23 10:48:53;;;;;;;66.00;25.15;;;;;;;9.25;100.00;100283.44;5134626;28;20061;-78
2020/12/23 10:51:24;;;;;;;63.13;24.88;;;;;;;9.30;100.00;100276.28;5134352;28;20516;-78
2020/12/23 10:53:54;;;;;;;55.53;23.73;;;;;;;9.32;100.00;100268.41;5133052;28;20073;-78
2020/12/23 10:56:24;;;;;;;57.80;23.63;;;;;;;9.30;100.00;100262.41;5140438;28;20039;-78
2020/12/23 10:58:55;;;;;;;57.75;23.77;;;;;;;9.34;100.00;100262.22;5137497;28;20089;-78
2020/12/23 11:01:25;;;;;;;55.22;22.40;;;;;;;9.39;100.00;100269.88;5140763;28;20453;-78
2020/12/23 11:03:55;;;;;;;49.53;22.67;;;;;;;9.40;100.00;100258.56;5141243;28;20023;-78
2020/12/23 11:06:26;;;;;;;50.88;22.15;;;;;;;9.40;100.00;100248.13;5140415;28;20182;-78
2020/12/23 11:08:57;;;;;;;50.75;22.60;;;;;;;9.40;100.00;100246.38;5141364;28;20486;-78
2020/12/23 11:11:27;;;;;;;52.22;22.63;;;;;;;9.35;100.00;100257.88;5140120;28;20156;-78
2020/12/23 11:13:58;;;;;;;52.55;23.13;;;;;;;9.28;100.00;100256.41;5140294;28;20525;-78
2020/12/23 11:16:30;;;;;;;50.95;22.50;;;;;;;9.31;100.00;100251.06;5140295;28;20053;-79
2020/12/23 11:19:00;;;;;;;50.28;22.50;;;;;;;9.33;100.00;100244.88;5142823;28;20504;-78
2020/12/23 11:21:32;;;;;;;52.92;22.75;;;;;;;9.39;100.00;100243.81;5140509;28;20038;-78
2020/12/23 11:24:03;;;;;;;51.08;22.52;;;;;;;9.34;100.00;100237.91;5138227;28;20037;-78
2020/12/23 11:26:33;;;;;;;55.85;23.27;;;;;;;9.32;100.00;100222.31;5139768;28;20039;-78
2020/12/23 11:29:04;;;;;;;51.83;23.15;;;;;;;9.40;100.00;100224.66;5137953;28;20091;-78
2020/12/23 11:31:35;;;;;;;48.67;22.02;;;;;;;9.55;100.00;100234.53;5138493;28;20501;-78
2020/12/23 11:34:05;;;;;;;52.55;22.98;;;;;;;9.56;100.00;100231.00;5139510;28;20023;-78